createdAt,value
2022-09-28T00:00:14.929Z,11.56
2022-09-28T00:02:16.864Z,11.60
2022-09-28T00:04:18.770Z,11.51
2022-09-28T00:06:23.467Z,11.45
2022-09-28T00:08:25.283Z,11.47
2022-09-28T00:10:27.262Z,11.54
2022-09-28T00:12:28.986Z,11.59
2022-09-28T00:14:30.692Z,11.62
2022-09-28T00:16:35.510Z,11.54
2022-09-28T00:18:37.563Z,11.58
2022-09-28T00:20:39.369Z,11.58
2022-09-28T00:22:41.186Z,11.50
2022-09-28T00:24:42.875Z,11.59
2022-09-28T00:26:50.721Z,11.64
2022-09-28T00:28:54.023Z,11.58
2022-09-28T00:30:56.020Z,11.63
2022-09-28T00:32:57.945Z,11.56
2022-09-28T00:34:59.735Z,11.61
2022-09-28T00:37:02.949Z,11.67
2022-09-28T00:39:07.717Z,11.66
2022-09-28T00:41:11.584Z,11.66
2022-09-28T00:43:18.213Z,11.61
2022-09-28T00:45:19.954Z,11.64
2022-09-28T00:47:36.883Z,11.73
2022-09-28T00:50:10.775Z,11.70
2022-09-28T00:52:23.898Z,11.72
2022-09-28T00:54:25.825Z,11.71
2022-09-28T00:56:30.829Z,11.74
2022-09-28T00:58:36.576Z,11.75
2022-09-28T01:00:39.433Z,11.72
2022-09-28T01:02:41.157Z,11.53
2022-09-28T01:04:42.876Z,11.38
2022-09-28T01:06:47.104Z,11.24
2022-09-28T01:08:52.389Z,11.27
2022-09-28T01:10:54.239Z,11.19
2022-09-28T01:12:56.150Z,11.12
2022-09-28T01:14:59.410Z,11.20
2022-09-28T01:17:17.816Z,11.15
2022-09-28T01:19:52.856Z,11.20
2022-09-28T01:22:08.186Z,11.16
2022-09-28T01:24:19.039Z,10.96
2022-09-28T01:26:41.146Z,10.88
2022-09-28T01:28:47.009Z,10.84
2022-09-28T01:31:12.227Z,10.91
2022-09-28T01:33:22.890Z,10.80
2022-09-28T01:35:27.248Z,10.84
2022-09-28T01:37:52.690Z,10.86
2022-09-28T01:39:57.201Z,10.77
2022-09-28T01:42:05.817Z,10.72
2022-09-28T01:44:16.251Z,10.58
2022-09-28T01:46:22.189Z,10.49
2022-09-28T01:48:30.216Z,10.45
2022-09-28T01:50:38.303Z,10.34
2022-09-28T01:52:46.250Z,10.07
2022-09-28T01:55:27.085Z,10.41
2022-09-28T01:57:40.525Z,10.25
2022-09-28T01:59:49.501Z,10.22
2022-09-28T02:01:58.612Z,10.17
2022-09-28T02:04:13.560Z,10.22
2022-09-28T02:06:32.324Z,10.19
2022-09-28T02:08:40.342Z,10.25
2022-09-28T02:10:52.554Z,10.26
2022-09-28T02:13:12.254Z,10.22
2022-09-28T02:15:40.879Z,10.23
2022-09-28T02:17:43.289Z,10.12
2022-09-28T02:19:45.286Z,10.18
2022-09-28T02:22:01.920Z,10.22
2022-09-28T02:24:10.828Z,10.24
2022-09-28T02:26:17.824Z,10.33
2022-09-28T02:28:19.582Z,10.33
2022-09-28T02:30:21.532Z,10.26
2022-09-28T02:32:26.394Z,10.32
2022-09-28T02:34:28.245Z,10.33
2022-09-28T02:36:30.079Z,10.45
2022-09-28T02:38:33.360Z,10.42
2022-09-28T02:40:36.512Z,10.37
2022-09-28T02:42:52.039Z,10.25
2022-09-28T02:44:56.586Z,10.25
2022-09-28T02:47:22.948Z,10.32
2022-09-28T02:49:52.395Z,10.29
2022-09-28T02:52:11.710Z,10.24
2022-09-28T02:54:44.452Z,10.19
2022-09-28T02:57:08.893Z,10.07
2022-09-28T02:59:16.835Z,9.93
2022-09-28T03:01:35.840Z,10.01
2022-09-28T03:04:12.856Z,10.00
2022-09-28T03:06:23.063Z,10.04
2022-09-28T03:08:43.131Z,10.19
2022-09-28T03:10:51.504Z,10.10
2022-09-28T03:12:54.831Z,10.02
2022-09-28T03:15:20.091Z,9.97
2022-09-28T03:17:22.090Z,10.06
2022-09-28T03:19:31.377Z,10.05
2022-09-28T03:21:33.065Z,10.01
2022-09-28T03:23:35.026Z,10.02
2022-09-28T03:25:36.797Z,10.11
2022-09-28T03:27:39.027Z,10.25
2022-09-28T03:29:40.791Z,10.26
2022-09-28T03:31:42.610Z,10.05
2022-09-28T03:33:44.308Z,10.09
2022-09-28T03:35:50.545Z,10.02
2022-09-28T03:37:56.475Z,9.97
2022-09-28T03:39:58.173Z,9.93
2022-09-28T03:42:03.060Z,9.88
2022-09-28T03:44:05.224Z,9.96
2022-09-28T03:46:07.048Z,10.04
2022-09-28T03:48:08.909Z,10.07
2022-09-28T03:50:10.690Z,10.02
2022-09-28T03:52:13.373Z,10.06
2022-09-28T03:54:15.091Z,10.00
2022-09-28T03:56:16.874Z,9.96
2022-09-28T03:58:19.048Z,9.96
2022-09-28T04:00:21.079Z,10.08
2022-09-28T04:02:23.002Z,10.08
2022-09-28T04:04:24.764Z,10.15
2022-09-28T04:06:26.887Z,10.16
2022-09-28T04:08:28.815Z,10.22
2022-09-28T04:10:30.579Z,10.12
2022-09-28T04:12:32.374Z,10.03
2022-09-28T04:14:34.306Z,9.86
2022-09-28T04:16:36.092Z,9.77
2022-09-28T04:18:37.882Z,9.83
2022-09-28T04:20:39.918Z,9.86
2022-09-28T04:22:41.937Z,9.81
2022-09-28T04:24:43.868Z,9.80
2022-09-28T04:26:45.642Z,9.80
2022-09-28T04:28:47.728Z,9.80
2022-09-28T04:30:49.885Z,9.92
2022-09-28T04:32:51.642Z,9.98
2022-09-28T04:34:53.439Z,10.01
2022-09-28T04:36:55.485Z,10.04
2022-09-28T04:38:57.331Z,10.07
2022-09-28T04:40:59.131Z,10.11
2022-09-28T04:43:01.116Z,10.02
2022-09-28T04:45:02.890Z,10.07
2022-09-28T04:47:05.422Z,9.92
2022-09-28T04:49:07.297Z,9.86
2022-09-28T04:51:09.097Z,9.86
2022-09-28T04:53:10.832Z,9.82
2022-09-28T04:55:13.053Z,9.73
2022-09-28T04:57:14.809Z,9.71
2022-09-28T04:59:16.680Z,9.68
2022-09-28T05:01:19.638Z,9.59
2022-09-28T05:03:21.376Z,9.52
2022-09-28T05:05:23.090Z,9.48
2022-09-28T05:07:26.124Z,9.56
2022-09-28T05:09:28.053Z,9.49
2022-09-28T05:11:29.819Z,9.47
2022-09-28T05:13:33.067Z,9.45
2022-09-28T05:15:35.747Z,9.49
2022-09-28T05:17:37.505Z,9.54
2022-09-28T05:19:39.375Z,9.46
2022-09-28T05:21:45.024Z,9.41
2022-09-28T05:23:47.658Z,9.48
2022-09-28T05:25:49.678Z,9.53
2022-09-28T05:27:57.659Z,9.72
2022-09-28T05:29:59.375Z,9.70
2022-09-28T05:32:01.442Z,9.46
2022-09-28T05:34:03.597Z,9.44
2022-09-28T05:36:05.525Z,9.42
2022-09-28T05:38:07.435Z,9.36
2022-09-28T05:40:10.427Z,9.42
2022-09-28T05:42:12.144Z,9.32
2022-09-28T05:44:14.010Z,9.27
2022-09-28T05:46:16.777Z,9.31
2022-09-28T05:48:18.551Z,9.09
2022-09-28T05:50:20.658Z,9.42
2022-09-28T05:52:22.490Z,9.37
2022-09-28T05:54:24.246Z,9.30
2022-09-28T05:56:26.083Z,9.38
2022-09-28T05:58:28.705Z,9.33
2022-09-28T06:00:31.781Z,9.41
2022-09-28T06:02:33.801Z,9.31
2022-09-28T06:04:35.686Z,9.33
2022-09-28T06:06:37.481Z,9.35
2022-09-28T06:08:39.247Z,9.44
2022-09-28T06:10:41.012Z,9.26
2022-09-28T06:12:42.749Z,9.36
2022-09-28T06:14:44.753Z,9.22
2022-09-28T06:16:46.533Z,9.15
2022-09-28T06:18:48.316Z,9.09
2022-09-28T06:20:50.189Z,9.31
2022-09-28T06:22:53.389Z,9.26
2022-09-28T06:24:55.100Z,9.30
2022-09-28T06:26:56.965Z,9.46
2022-09-28T06:28:58.817Z,9.33
2022-09-28T06:31:01.208Z,9.45
2022-09-28T06:33:03.051Z,9.44
2022-09-28T06:35:05.139Z,9.58
2022-09-28T06:37:06.856Z,9.69
2022-09-28T06:39:08.858Z,9.68
2022-09-28T06:41:11.456Z,9.60
2022-09-28T06:43:14.636Z,9.44
2022-09-28T06:45:16.578Z,9.51
2022-09-28T06:47:18.496Z,9.67
2022-09-28T06:49:20.170Z,9.59
2022-09-28T06:51:22.081Z,9.65
2022-09-28T06:53:23.952Z,9.78
2022-09-28T06:55:26.741Z,9.51
2022-09-28T06:57:29.058Z,9.70
2022-09-28T06:59:30.882Z,9.59
2022-09-28T07:01:32.633Z,9.62
2022-09-28T07:03:34.700Z,9.58
2022-09-28T07:05:37.094Z,9.62
2022-09-28T07:07:38.869Z,9.73
2022-09-28T07:09:44.935Z,9.81
2022-09-28T07:11:49.900Z,9.68
2022-09-28T07:13:51.754Z,9.69
2022-09-28T07:15:57.830Z,9.61
2022-09-28T07:18:03.542Z,9.56
2022-09-28T07:20:16.725Z,9.45
2022-09-28T07:22:26.859Z,9.44
2022-09-28T07:24:36.546Z,9.53
2022-09-28T07:26:38.530Z,9.65
2022-09-28T07:28:40.615Z,9.60
2022-09-28T07:30:42.477Z,9.55
2022-09-28T07:32:45.868Z,9.54
2022-09-28T07:34:47.665Z,9.43
2022-09-28T07:36:49.404Z,9.49
2022-09-28T07:38:51.376Z,9.31
2022-09-28T07:40:53.291Z,9.31
2022-09-28T07:42:55.033Z,9.33
2022-09-28T07:44:57.893Z,9.48
2022-09-28T07:46:59.694Z,9.47
2022-09-28T07:49:01.755Z,9.57
2022-09-28T07:51:03.765Z,9.64
2022-09-28T07:53:05.496Z,9.69
2022-09-28T07:55:07.838Z,9.89
2022-09-28T07:57:09.763Z,9.90
2022-09-28T07:59:11.587Z,9.69
2022-09-28T08:01:13.396Z,9.92
2022-09-28T08:03:16.866Z,9.63
2022-09-28T08:05:18.645Z,9.67
2022-09-28T08:07:23.662Z,9.93
2022-09-28T08:09:25.948Z,9.97
2022-09-28T08:11:27.748Z,9.96
2022-09-28T08:13:29.539Z,9.85
2022-09-28T08:15:34.737Z,9.83
2022-09-28T08:17:36.753Z,9.87
2022-09-28T08:19:38.524Z,10.15
2022-09-28T08:21:40.298Z,10.42
2022-09-28T08:23:42.052Z,10.44
2022-09-28T08:25:51.541Z,10.37
2022-09-28T08:27:54.796Z,10.33
2022-09-28T08:29:56.860Z,10.50
2022-09-28T08:32:01.506Z,10.71
2022-09-28T08:34:03.886Z,10.83
2022-09-28T08:36:05.954Z,10.78
2022-09-28T08:38:08.908Z,10.84
2022-09-28T08:40:20.811Z,10.47
2022-09-28T08:42:36.062Z,10.37
2022-09-28T08:44:45.076Z,10.51
2022-09-28T08:46:52.031Z,11.03
2022-09-28T08:49:26.786Z,11.15
2022-09-28T08:51:31.286Z,10.93
2022-09-28T08:53:42.337Z,11.17
2022-09-28T08:55:45.345Z,11.22
2022-09-28T08:57:55.972Z,11.46
2022-09-28T09:00:00.375Z,11.67
2022-09-28T09:02:04.505Z,11.69
2022-09-28T09:04:07.966Z,12.08
2022-09-28T09:06:53.919Z,12.21
2022-09-28T09:09:19.224Z,11.37
2022-09-28T09:11:31.222Z,11.23
2022-09-28T09:13:41.771Z,11.55
2022-09-28T09:15:58.563Z,11.16
2022-09-28T09:18:20.977Z,11.46
2022-09-28T09:20:30.122Z,11.32
2022-09-28T09:22:35.031Z,11.19
2022-09-28T09:24:48.192Z,11.56
2022-09-28T09:27:12.320Z,11.74
2022-09-28T09:29:29.055Z,12.34
2022-09-28T09:31:39.474Z,12.70
2022-09-28T09:34:02.405Z,12.25
2022-09-28T09:36:20.707Z,12.06
2022-09-28T09:38:50.239Z,11.89
2022-09-28T09:41:10.418Z,12.16
2022-09-28T09:43:32.075Z,11.97
2022-09-28T09:45:59.208Z,11.94
2022-09-28T09:48:06.479Z,11.64
2022-09-28T09:50:46.028Z,11.62
2022-09-28T09:52:53.351Z,12.02
2022-09-28T09:54:58.000Z,12.49
2022-09-28T09:57:14.842Z,13.03
2022-09-28T09:59:31.482Z,13.80
2022-09-28T10:01:37.219Z,13.25
2022-09-28T10:03:43.187Z,12.65
2022-09-28T10:05:51.339Z,12.65
2022-09-28T10:08:02.624Z,13.05
2022-09-28T10:10:19.372Z,13.12
2022-09-28T10:12:23.526Z,13.36
2022-09-28T10:14:25.937Z,13.21
2022-09-28T10:16:27.818Z,13.40
2022-09-28T10:18:29.618Z,13.27
2022-09-28T10:20:34.827Z,13.69
2022-09-28T10:22:36.669Z,13.77
2022-09-28T10:24:45.877Z,13.84
2022-09-28T10:26:53.391Z,13.83
2022-09-28T10:29:01.556Z,13.63
2022-09-28T10:31:35.070Z,13.69
2022-09-28T10:33:36.849Z,12.96
2022-09-28T10:35:43.698Z,12.69
2022-09-28T10:37:51.185Z,12.85
2022-09-28T10:39:55.481Z,12.96
2022-09-28T10:42:00.006Z,13.38
2022-09-28T10:44:03.817Z,13.38
2022-09-28T10:46:09.521Z,12.89
2022-09-28T10:48:19.622Z,13.10
2022-09-28T10:50:27.178Z,13.17
2022-09-28T10:52:34.950Z,13.12
2022-09-28T10:54:36.798Z,13.21
2022-09-28T10:56:40.266Z,13.25
2022-09-28T10:58:42.104Z,13.34
2022-09-28T11:00:45.064Z,13.22
2022-09-28T11:02:46.952Z,13.10
2022-09-28T11:04:58.015Z,13.27
2022-09-28T11:07:02.294Z,13.37
2022-09-28T11:09:07.980Z,13.34
2022-09-28T11:11:12.954Z,13.37
2022-09-28T11:13:15.123Z,13.34
2022-09-28T11:15:24.984Z,13.47
2022-09-28T11:17:33.753Z,13.92
2022-09-28T11:19:35.762Z,13.75
2022-09-28T11:21:44.314Z,14.04
2022-09-28T11:24:18.864Z,14.04
2022-09-28T11:26:22.020Z,13.89
2022-09-28T11:28:28.828Z,13.77
2022-09-28T11:30:48.877Z,13.91
2022-09-28T11:32:52.640Z,13.88
2022-09-28T11:34:59.571Z,13.83
2022-09-28T11:37:24.325Z,13.82
2022-09-28T11:39:36.664Z,13.47
2022-09-28T11:41:48.579Z,13.45
2022-09-28T11:44:20.095Z,13.37
2022-09-28T11:46:47.076Z,13.32
2022-09-28T11:48:57.782Z,13.17
2022-09-28T11:51:18.421Z,13.30
2022-09-28T11:53:29.365Z,13.16
2022-09-28T11:55:44.099Z,13.19
2022-09-28T11:57:50.617Z,13.05
2022-09-28T12:00:12.007Z,13.13
2022-09-28T12:02:21.151Z,13.20
2022-09-28T12:04:41.443Z,12.86
2022-09-28T12:06:59.909Z,12.86
2022-09-28T12:09:14.212Z,12.91
2022-09-28T12:11:23.795Z,13.01
2022-09-28T12:13:32.746Z,12.80
2022-09-28T12:16:07.400Z,12.90
2022-09-28T12:18:17.973Z,12.96
2022-09-28T12:20:32.975Z,13.14
2022-09-28T12:23:00.575Z,13.18
2022-09-28T12:25:05.045Z,13.16
2022-09-28T12:27:35.947Z,12.90
2022-09-28T12:29:55.148Z,13.30
2022-09-28T12:32:12.744Z,13.50
2022-09-28T12:34:14.826Z,13.58
2022-09-28T12:36:37.907Z,13.96
2022-09-28T12:39:30.913Z,14.23
2022-09-28T12:41:28.952Z,14.20
2022-09-28T12:44:04.605Z,14.37
2022-09-28T12:46:27.413Z,13.61
2022-09-28T12:48:39.656Z,13.38
2022-09-28T12:50:59.135Z,13.11
2022-09-28T12:53:26.758Z,13.05
2022-09-28T12:55:52.519Z,13.19
2022-09-28T12:58:17.603Z,13.50
2022-09-28T13:00:22.125Z,13.21
2022-09-28T13:02:42.322Z,12.93
2022-09-28T13:04:57.982Z,13.06
2022-09-28T13:07:20.014Z,13.12
2022-09-28T13:09:24.370Z,13.14
2022-09-28T13:11:34.758Z,13.22
2022-09-28T13:13:59.055Z,13.48
2022-09-28T13:16:39.006Z,13.58
2022-09-28T13:19:03.670Z,13.47
2022-09-28T13:21:46.994Z,13.45
2022-09-28T13:23:57.908Z,13.63
2022-09-28T13:26:10.299Z,13.84
2022-09-28T13:28:17.128Z,14.03
2022-09-28T13:30:19.393Z,14.01
2022-09-28T13:32:21.538Z,14.07
2022-09-28T13:34:27.328Z,14.11
2022-09-28T13:36:29.061Z,14.23
2022-09-28T13:38:45.206Z,13.96
2022-09-28T13:41:07.190Z,13.76
2022-09-28T13:43:27.066Z,13.79
2022-09-28T13:45:46.170Z,13.63
2022-09-28T13:48:04.944Z,13.72
2022-09-28T13:50:35.085Z,13.75
2022-09-28T13:53:01.859Z,13.71
2022-09-28T13:55:31.333Z,13.60
2022-09-28T13:57:36.034Z,13.59
2022-09-28T13:59:49.031Z,13.56
2022-09-28T14:01:53.524Z,13.50
2022-09-28T14:04:01.274Z,13.55
2022-09-28T14:06:30.355Z,13.34
2022-09-28T14:08:56.493Z,13.37
2022-09-28T14:11:27.079Z,13.39
2022-09-28T14:13:40.893Z,13.30
2022-09-28T14:15:45.223Z,13.33
2022-09-28T14:17:51.415Z,13.16
2022-09-28T14:19:59.436Z,12.96
2022-09-28T14:22:22.751Z,13.27
2022-09-28T14:24:56.968Z,13.38
2022-09-28T14:27:35.760Z,13.39
2022-09-28T14:29:39.075Z,13.38
2022-09-28T14:31:42.909Z,13.27
2022-09-28T14:33:55.131Z,13.11
2022-09-28T14:36:01.509Z,12.88
2022-09-28T14:38:12.526Z,13.05
2022-09-28T14:40:27.261Z,12.95
2022-09-28T14:42:29.020Z,13.04
2022-09-28T14:45:06.200Z,13.08
2022-09-28T14:47:34.267Z,12.91
2022-09-28T14:49:35.946Z,12.98
2022-09-28T14:51:40.575Z,12.97
2022-09-28T14:53:42.833Z,12.86
2022-09-28T14:55:50.791Z,13.02
2022-09-28T14:57:55.799Z,12.92
2022-09-28T14:59:58.843Z,12.92
2022-09-28T15:02:17.091Z,12.90
2022-09-28T15:04:19.526Z,12.82
2022-09-28T15:06:25.982Z,12.88
2022-09-28T15:08:39.165Z,12.86
2022-09-28T15:10:46.658Z,12.84
2022-09-28T15:12:48.531Z,12.81
2022-09-28T15:14:57.719Z,12.81
2022-09-28T15:17:01.308Z,12.72
2022-09-28T15:19:20.647Z,12.81
2022-09-28T15:21:23.952Z,12.96
2022-09-28T15:23:33.806Z,13.00
2022-09-28T15:25:35.634Z,12.92
2022-09-28T15:27:38.547Z,12.93
2022-09-28T15:29:40.406Z,12.92
2022-09-28T15:31:42.851Z,12.83
2022-09-28T15:33:44.749Z,12.92
2022-09-28T15:35:58.195Z,12.96
2022-09-28T15:37:59.984Z,12.82
2022-09-28T15:40:03.053Z,12.69
2022-09-28T15:42:06.083Z,12.61
2022-09-28T15:44:10.732Z,12.60
2022-09-28T15:46:20.780Z,12.56
2022-09-28T15:48:40.286Z,12.42
2022-09-28T15:51:11.152Z,12.52
2022-09-28T15:53:18.126Z,12.65
2022-09-28T15:55:28.733Z,12.48
2022-09-28T15:57:40.012Z,12.54
2022-09-28T15:59:42.734Z,12.47
2022-09-28T16:01:45.132Z,12.50
2022-09-28T16:03:46.990Z,12.57
2022-09-28T16:05:59.131Z,12.63
2022-09-28T16:08:02.931Z,12.65
2022-09-28T16:10:13.517Z,12.65
2022-09-28T16:12:15.350Z,12.49
2022-09-28T16:14:24.078Z,12.54
2022-09-28T16:16:34.339Z,12.56
2022-09-28T16:18:40.330Z,12.50
2022-09-28T16:20:42.820Z,12.57
2022-09-28T16:22:45.500Z,12.48
2022-09-28T16:25:16.433Z,12.54
2022-09-28T16:27:29.085Z,12.52
2022-09-28T16:29:40.710Z,12.52
2022-09-28T16:31:42.733Z,12.47
2022-09-28T16:33:51.988Z,12.41
2022-09-28T16:35:53.800Z,12.27
2022-09-28T16:37:58.493Z,12.00
2022-09-28T16:40:00.311Z,11.98
2022-09-28T16:42:12.647Z,11.91
2022-09-28T16:44:25.963Z,11.95
2022-09-28T16:46:34.611Z,11.90
2022-09-28T16:48:41.032Z,11.65
2022-09-28T16:50:42.995Z,11.69
2022-09-28T16:52:44.764Z,11.74
2022-09-28T16:54:46.609Z,11.72
2022-09-28T16:56:48.479Z,11.71
2022-09-28T16:58:50.176Z,11.76
2022-09-28T17:00:52.580Z,11.73
2022-09-28T17:02:55.810Z,11.68
2022-09-28T17:04:57.519Z,11.65
2022-09-28T17:06:59.305Z,11.80
2022-09-28T17:09:01.182Z,11.73
2022-09-28T17:11:14.835Z,11.77
2022-09-28T17:13:20.779Z,11.71
2022-09-28T17:15:22.552Z,11.57
2022-09-28T17:17:24.218Z,11.51
2022-09-28T17:19:26.177Z,11.55
2022-09-28T17:21:27.960Z,11.50
2022-09-28T17:23:29.995Z,11.41
2022-09-28T17:25:31.749Z,11.57
2022-09-28T17:27:33.458Z,11.69
2022-09-28T17:29:35.197Z,11.58
2022-09-28T17:31:37.093Z,11.72
2022-09-28T17:33:38.906Z,11.69
2022-09-28T17:35:42.000Z,11.70
2022-09-28T17:37:44.257Z,11.58
2022-09-28T17:39:45.963Z,11.53
2022-09-28T17:41:47.737Z,11.57
2022-09-28T17:43:49.786Z,11.43
2022-09-28T17:45:52.211Z,11.42
2022-09-28T17:47:55.379Z,11.46
2022-09-28T17:49:57.083Z,11.46
2022-09-28T17:51:58.983Z,11.31
2022-09-28T17:54:01.212Z,11.25
2022-09-28T17:56:03.234Z,11.28
2022-09-28T17:58:22.098Z,11.26
2022-09-28T18:00:24.612Z,11.30
2022-09-28T18:02:26.568Z,11.28
2022-09-28T18:04:50.929Z,11.22
2022-09-28T18:06:50.247Z,11.21
2022-09-28T18:08:52.038Z,11.14
2022-09-28T18:10:53.799Z,11.26
2022-09-28T18:12:55.498Z,11.19
2022-09-28T18:14:57.402Z,11.01
2022-09-28T18:16:59.104Z,11.13
2022-09-28T18:19:00.832Z,11.09
2022-09-28T18:21:02.812Z,11.04
2022-09-28T18:23:05.352Z,11.05
2022-09-28T18:25:07.586Z,11.10
2022-09-28T18:27:09.346Z,11.10
2022-09-28T18:29:11.139Z,11.10
2022-09-28T18:31:15.220Z,11.03
2022-09-28T18:33:17.986Z,10.99
2022-09-28T18:35:22.954Z,10.72
2022-09-28T18:37:24.962Z,11.01
2022-09-28T18:39:26.707Z,10.96
2022-09-28T18:41:28.835Z,10.96
2022-09-28T18:43:35.585Z,10.92
2022-09-28T18:45:38.384Z,10.85
2022-09-28T18:47:40.363Z,10.80
2022-09-28T18:49:46.455Z,10.85
2022-09-28T18:51:48.759Z,10.89
2022-09-28T18:53:50.723Z,10.79
2022-09-28T18:55:52.388Z,10.75
2022-09-28T18:57:54.203Z,10.72
2022-09-28T18:59:56.196Z,10.77
2022-09-28T19:01:58.011Z,10.59
2022-09-28T19:04:01.551Z,10.60
2022-09-28T19:06:03.653Z,10.54
2022-09-28T19:08:05.425Z,10.48
2022-09-28T19:10:07.899Z,10.47
2022-09-28T19:12:11.249Z,10.37
2022-09-28T19:14:13.008Z,10.36
2022-09-28T19:16:20.708Z,10.27
2022-09-28T19:18:22.500Z,10.27
2022-09-28T19:20:24.211Z,10.32
2022-09-28T19:22:26.120Z,10.18
2022-09-28T19:24:27.836Z,10.09
2022-09-28T19:26:30.605Z,10.05
2022-09-28T19:28:33.390Z,10.12
2022-09-28T19:30:35.259Z,10.10
2022-09-28T19:32:36.967Z,10.05
2022-09-28T19:34:38.959Z,9.86
2022-09-28T19:36:40.666Z,9.90
2022-09-28T19:38:42.452Z,9.85
2022-09-28T19:40:44.678Z,9.83
2022-09-28T19:42:46.413Z,9.79
2022-09-28T19:44:48.111Z,9.77
2022-09-28T19:46:50.740Z,9.89
2022-09-28T19:48:52.449Z,9.95
2022-09-28T19:51:05.763Z,9.95
2022-09-28T19:53:07.600Z,9.92
2022-09-28T19:55:09.505Z,10.01
2022-09-28T19:57:13.200Z,10.10
2022-09-28T19:59:15.453Z,10.01
2022-09-28T20:01:17.278Z,10.14
2022-09-28T20:03:19.036Z,10.13
2022-09-28T20:05:21.002Z,10.24
2022-09-28T20:07:22.717Z,10.19
2022-09-28T20:09:24.426Z,10.23
2022-09-28T20:11:26.461Z,10.16
2022-09-28T20:13:34.121Z,10.13
2022-09-28T20:15:36.130Z,10.02
2022-09-28T20:17:38.058Z,9.94
2022-09-28T20:19:39.756Z,9.84
2022-09-28T20:21:41.542Z,9.84
2022-09-28T20:23:43.975Z,9.86
2022-09-28T20:25:45.661Z,9.79
2022-09-28T20:27:47.442Z,9.70
2022-09-28T20:29:49.343Z,9.53
2022-09-28T20:31:51.114Z,9.51
2022-09-28T20:33:52.966Z,9.52
2022-09-28T20:35:54.739Z,9.35
2022-09-28T20:37:56.461Z,9.29
2022-09-28T20:39:58.170Z,9.28
2022-09-28T20:41:59.894Z,9.22
2022-09-28T20:44:05.285Z,9.19
2022-09-28T20:46:09.831Z,9.15
2022-09-28T20:48:12.469Z,9.07
2022-09-28T20:50:14.222Z,9.06
2022-09-28T20:52:15.978Z,9.10
2022-09-28T20:54:17.909Z,9.10
2022-09-28T20:56:22.303Z,9.07
2022-09-28T20:58:23.997Z,9.03
2022-09-28T21:00:26.046Z,9.08
2022-09-28T21:02:27.844Z,9.00
2022-09-28T21:04:29.633Z,9.02
2022-09-28T21:06:33.906Z,9.01
2022-09-28T21:08:35.631Z,9.03
2022-09-28T21:10:37.332Z,9.01
2022-09-28T21:12:39.278Z,9.06
2022-09-28T21:14:40.976Z,8.99
2022-09-28T21:16:42.651Z,9.07
2022-09-28T21:18:44.919Z,9.14
2022-09-28T21:20:48.380Z,9.12
2022-09-28T21:22:50.065Z,9.07
2022-09-28T21:24:51.843Z,9.03
2022-09-28T21:26:53.550Z,8.97
2022-09-28T21:29:04.172Z,8.87
2022-09-28T21:31:08.453Z,8.79
2022-09-28T21:33:10.655Z,8.73
2022-09-28T21:35:12.406Z,8.76
2022-09-28T21:37:14.234Z,8.70
2022-09-28T21:39:16.020Z,8.64
2022-09-28T21:41:17.714Z,8.66
2022-09-28T21:43:19.494Z,8.63
2022-09-28T21:45:21.470Z,8.55
2022-09-28T21:47:23.258Z,8.52
2022-09-28T21:49:25.274Z,8.51
2022-09-28T21:51:28.429Z,8.38
2022-09-28T21:53:35.432Z,8.42
2022-09-28T21:55:37.263Z,8.39
2022-09-28T21:57:39.009Z,8.38
2022-09-28T21:59:40.711Z,8.35
2022-09-28T22:01:42.804Z,8.25
2022-09-28T22:03:46.507Z,8.27
2022-09-28T22:05:50.943Z,8.27
2022-09-28T22:07:52.923Z,8.25
2022-09-28T22:09:54.637Z,8.22
2022-09-28T22:11:56.327Z,8.16
2022-09-28T22:13:59.473Z,8.10
2022-09-28T22:16:01.463Z,8.03
2022-09-28T22:18:03.280Z,7.96
2022-09-28T22:20:05.489Z,8.00
2022-09-28T22:22:07.783Z,7.93
2022-09-28T22:24:09.919Z,7.94
2022-09-28T22:26:17.670Z,7.91
2022-09-28T22:28:19.376Z,7.93
2022-09-28T22:30:21.062Z,7.88
2022-09-28T22:32:22.928Z,7.87
2022-09-28T22:34:24.652Z,7.87
2022-09-28T22:36:26.479Z,7.82
2022-09-28T22:38:32.138Z,7.72
2022-09-28T22:40:33.912Z,7.72
2022-09-28T22:42:35.659Z,7.70
2022-09-28T22:44:37.535Z,7.70
2022-09-28T22:46:39.298Z,7.69
2022-09-28T22:48:41.111Z,7.67
2022-09-28T22:50:51.853Z,7.67
2022-09-28T22:52:53.595Z,7.58
2022-09-28T22:54:55.288Z,7.62
2022-09-28T22:56:57.351Z,7.62
2022-09-28T22:58:59.384Z,7.60
2022-09-28T23:01:14.887Z,7.54
2022-09-28T23:03:17.274Z,7.52
2022-09-28T23:05:19.099Z,7.37
2022-09-28T23:07:20.798Z,7.33
2022-09-28T23:09:22.785Z,7.28
2022-09-28T23:11:24.753Z,7.33
2022-09-28T23:13:26.880Z,7.33
2022-09-28T23:15:28.915Z,7.31
2022-09-28T23:17:30.598Z,7.22
2022-09-28T23:19:32.345Z,7.22
2022-09-28T23:21:34.568Z,7.17
2022-09-28T23:23:36.460Z,7.24
2022-09-28T23:25:38.182Z,7.17
2022-09-28T23:27:40.290Z,7.16
2022-09-28T23:29:42.092Z,7.14
2022-09-28T23:31:43.877Z,6.96
2022-09-28T23:33:46.061Z,6.95
2022-09-28T23:35:47.950Z,6.98
2022-09-28T23:37:50.717Z,6.95
2022-09-28T23:39:52.705Z,6.99
2022-09-28T23:41:54.398Z,6.99
2022-09-28T23:43:56.158Z,6.97
2022-09-28T23:45:58.010Z,7.00
2022-09-28T23:47:59.965Z,6.99
2022-09-28T23:50:01.748Z,6.92
2022-09-28T23:52:03.730Z,6.89
2022-09-28T23:54:05.526Z,7.01
2022-09-28T23:56:07.335Z,7.04
2022-09-28T23:58:10.057Z,7.28
